Time;durP1;ratioP1;P1;durP2;ratioP2;P2;SDS_P1;SDS_P2;PMS_P1;PMS_P2;Temp;Humidity;BMP_temperature;BMP_pressure;BME280_temperature;BME280_humidity;BME280_pressure;Samples;Min_cycle;Max_cycle;Signal;HPM_P1;HPM_P2
2023/08/08 00:01:01;;;;;;;7.43;3.88;;;14.10;99.90;;;;;;5034914;28;20414;-64
2023/08/08 00:03:27;;;;;;;7.07;4.07;;;14.10;99.90;;;;;;5033835;28;20041;-64
2023/08/08 00:05:52;;;;;;;6.35;3.85;;;14.00;99.90;;;;;;5035465;28;20083;-64
2023/08/08 00:08:18;;;;;;;6.93;4.20;;;14.10;99.90;;;;;;5032867;28;20477;-64
2023/08/08 00:10:44;;;;;;;5.65;3.88;;;14.00;99.90;;;;;;5034200;28;20044;-63
2023/08/08 00:13:09;;;;;;;8.07;3.80;;;14.00;99.90;;;;;;5024002;28;20549;-64
2023/08/08 00:15:36;;;;;;;5.55;3.75;;;14.00;99.90;;;;;;5034069;28;20395;-64
2023/08/08 00:18:01;;;;;;;4.30;3.72;;;14.10;99.90;;;;;;5032269;28;20052;-64
2023/08/08 00:20:27;;;;;;;5.63;3.90;;;14.00;99.90;;;;;;5062126;22;20044;-67
2023/08/08 00:22:53;;;;;;;6.63;3.67;;;14.00;99.90;;;;;;5066533;28;20036;-67
2023/08/08 00:25:19;;;;;;;7.68;3.75;;;14.00;99.90;;;;;;5073718;28;20032;-67
2023/08/08 00:27:44;;;;;;;6.32;3.83;;;14.00;99.90;;;;;;5068995;28;20268;-67
2023/08/08 00:30:13;;;;;;;6.35;3.67;;;14.00;99.90;;;;;;5065207;28;20482;-67
2023/08/08 00:32:39;;;;;;;6.47;4.10;;;14.00;99.90;;;;;;5070318;28;20555;-67
2023/08/08 00:35:05;;;;;;;4.95;3.78;;;14.00;99.90;;;;;;5074238;28;20490;-67
2023/08/08 00:37:30;;;;;;;6.50;4.05;;;14.00;99.90;;;;;;5073558;28;20104;-67
2023/08/08 00:39:56;;;;;;;6.10;3.80;;;14.00;99.90;;;;;;5073309;28;20036;-67
2023/08/08 00:42:22;;;;;;;7.50;4.38;;;14.00;99.90;;;;;;5072393;28;20037;-67
2023/08/08 00:44:48;;;;;;;9.27;4.00;;;14.00;99.90;;;;;;5066786;28;20448;-67
2023/08/08 00:47:13;;;;;;;5.72;4.03;;;13.90;99.90;;;;;;5069626;28;20043;-66
2023/08/08 00:49:39;;;;;;;5.88;4.28;;;14.00;99.90;;;;;;5068459;28;20036;-67
2023/08/08 00:52:07;;;;;;;7.35;4.20;;;14.00;99.90;;;;;;5073088;28;20041;-67
2023/08/08 00:54:33;;;;;;;7.57;4.18;;;13.90;99.90;;;;;;5067769;28;20093;-67
2023/08/08 00:56:59;;;;;;;4.95;3.72;;;14.00;99.90;;;;;;5073363;28;20036;-67
2023/08/08 00:59:24;;;;;;;8.68;4.03;;;14.00;99.90;;;;;;5073646;28;20041;-67
2023/08/08 01:01:50;;;;;;;6.53;4.20;;;14.00;99.90;;;;;;5071707;28;20039;-67
2023/08/08 01:04:17;;;;;;;7.93;4.40;;;14.00;99.90;;;;;;5070211;28;20040;-67
2023/08/08 01:06:54;;;;;;;5.32;4.30;;;14.00;99.90;;;;;;5073462;28;20108;-67
2023/08/08 01:09:35;;;;;;;7.57;4.55;;;14.00;99.90;;;;;;5073129;28;20036;-67
2023/08/08 01:12:03;;;;;;;8.00;4.10;;;14.00;99.90;;;;;;5074365;28;20047;-67
2023/08/08 01:14:30;;;;;;;7.93;4.40;;;14.10;99.90;;;;;;5066173;28;20059;-67
2023/08/08 01:16:59;;;;;;;6.80;3.83;;;14.10;99.90;;;;;;5072356;28;20479;-67
2023/08/08 01:19:31;;;;;;;6.60;3.90;;;14.10;99.90;;;;;;5073070;28;20379;-67
2023/08/08 01:22:02;;;;;;;6.30;4.05;;;14.10;99.90;;;;;;5073714;28;20111;-67
2023/08/08 01:24:30;;;;;;;6.07;3.97;;;14.10;99.90;;;;;;5071100;28;20515;-67
2023/08/08 01:27:00;;;;;;;6.50;4.13;;;14.10;99.90;;;;;;5054707;28;20146;-68
2023/08/08 01:29:27;;;;;;;8.70;4.30;;;14.10;99.90;;;;;;5065667;28;20383;-67
2023/08/08 01:31:53;;;;;;;6.63;4.72;;;14.10;99.90;;;;;;5073703;28;20037;-67
2023/08/08 01:34:18;;;;;;;7.50;3.72;;;14.10;99.90;;;;;;5072010;28;20033;-67
2023/08/08 01:36:57;;;;;;;7.88;3.95;;;14.10;99.90;;;;;;5073359;28;20112;-67
2023/08/08 01:39:27;;;;;;;9.32;4.57;;;14.10;99.90;;;;;;5071845;28;20602;-67
2023/08/08 01:41:55;;;;;;;6.60;4.63;;;14.20;99.90;;;;;;5073628;28;20121;-67
2023/08/08 01:44:23;;;;;;;7.55;4.40;;;14.10;99.90;;;;;;5063225;28;20048;-68
2023/08/08 01:46:49;;;;;;;8.30;4.60;;;14.10;99.90;;;;;;5063874;28;20154;-67
2023/08/08 01:49:14;;;;;;;7.43;4.18;;;14.20;99.90;;;;;;5071845;28;20036;-67
2023/08/08 01:51:40;;;;;;;7.70;4.70;;;14.20;99.90;;;;;;5069540;28;20066;-67
2023/08/08 01:54:06;;;;;;;9.63;4.47;;;14.20;99.90;;;;;;5070997;28;20556;-67
2023/08/08 01:56:32;;;;;;;7.70;4.03;;;14.20;99.90;;;;;;5071798;28;20058;-67
2023/08/08 01:58:57;;;;;;;6.97;3.90;;;14.20;99.90;;;;;;5071671;28;20045;-68
2023/08/08 02:01:23;;;;;;;8.55;4.00;;;14.20;99.90;;;;;;5069850;28;20036;-67
2023/08/08 02:03:48;;;;;;;6.75;3.95;;;14.30;99.90;;;;;;5070488;28;20036;-67
2023/08/08 02:06:14;;;;;;;9.50;4.85;;;14.30;99.90;;;;;;5067135;28;20036;-68
2023/08/08 02:08:40;;;;;;;10.75;4.47;;;14.20;99.90;;;;;;5072459;28;20102;-67
2023/08/08 02:11:05;;;;;;;8.68;4.22;;;14.20;99.90;;;;;;5072704;28;20045;-68
2023/08/08 02:13:31;;;;;;;7.03;4.07;;;14.30;99.90;;;;;;5071739;28;20444;-68
2023/08/08 02:15:56;;;;;;;6.43;3.88;;;14.30;99.90;;;;;;5068552;28;20040;-69
2023/08/08 02:18:22;;;;;;;11.57;4.78;;;14.30;99.90;;;;;;5069741;28;20390;-69
2023/08/08 02:20:48;;;;;;;6.85;4.20;;;14.20;99.90;;;;;;5072172;28;20040;-69
2023/08/08 02:23:13;;;;;;;10.13;4.47;;;14.30;99.90;;;;;;5071710;28;20028;-68
2023/08/08 02:25:39;;;;;;;8.57;4.13;;;14.30;99.90;;;;;;5070324;28;20498;-68
2023/08/08 02:28:05;;;;;;;9.73;4.30;;;14.30;99.90;;;;;;5072386;28;20390;-68
2023/08/08 02:30:30;;;;;;;9.07;4.30;;;14.30;99.90;;;;;;5070477;28;20462;-69
2023/08/08 02:32:56;;;;;;;7.40;4.00;;;14.30;99.90;;;;;;5071581;28;20086;-68
2023/08/08 02:35:22;;;;;;;9.55;4.30;;;14.30;99.90;;;;;;5070843;28;20036;-68
2023/08/08 02:37:47;;;;;;;12.80;5.05;;;14.30;99.90;;;;;;5072235;28;20040;-68
2023/08/08 02:40:13;;;;;;;10.32;4.57;;;14.30;99.90;;;;;;5072393;28;20070;-68
2023/08/08 02:42:38;;;;;;;8.93;4.70;;;14.30;99.90;;;;;;5071073;28;20033;-69
2023/08/08 02:45:05;;;;;;;8.35;4.30;;;14.30;99.90;;;;;;5069857;28;20040;-69
2023/08/08 02:47:30;;;;;;;8.70;4.72;;;14.30;99.90;;;;;;5071190;28;20037;-68
2023/08/08 02:49:56;;;;;;;9.32;4.75;;;14.30;99.90;;;;;;5071535;28;20398;-69
2023/08/08 02:52:22;;;;;;;9.15;4.68;;;14.30;99.90;;;;;;5071290;28;20086;-68
2023/08/08 02:54:47;;;;;;;9.93;5.20;;;14.30;99.90;;;;;;5070028;28;20490;-68
2023/08/08 02:57:13;;;;;;;10.95;5.32;;;14.30;99.90;;;;;;5063605;28;20028;-68
2023/08/08 02:59:39;;;;;;;13.55;5.20;;;14.30;99.90;;;;;;5071462;28;20032;-69
2023/08/08 03:02:05;;;;;;;11.23;4.95;;;14.30;99.90;;;;;;5072113;28;20037;-68
2023/08/08 03:04:31;;;;;;;9.07;5.47;;;14.30;99.90;;;;;;5068840;28;20047;-69
2023/08/08 03:06:56;;;;;;;11.13;5.40;;;14.30;99.90;;;;;;5071212;28;20040;-69
2023/08/08 03:09:22;;;;;;;10.02;5.32;;;14.30;99.90;;;;;;5071905;28;20036;-68
2023/08/08 03:11:47;;;;;;;10.38;5.20;;;14.30;99.90;;;;;;5071626;28;20043;-69
2023/08/08 03:14:13;;;;;;;8.15;4.68;;;14.30;99.90;;;;;;5053768;28;20095;-68
2023/08/08 03:16:39;;;;;;;12.48;5.30;;;14.30;99.90;;;;;;5066761;28;20032;-68
2023/08/08 03:19:05;;;;;;;12.45;5.00;;;14.30;99.90;;;;;;5069065;28;20099;-68
2023/08/08 03:21:31;;;;;;;13.90;5.38;;;14.20;99.90;;;;;;5071442;28;20036;-68
2023/08/08 03:23:57;;;;;;;11.48;5.30;;;14.20;99.90;;;;;;5071012;28;20052;-68
2023/08/08 03:26:23;;;;;;;13.43;5.70;;;14.20;99.90;;;;;;5063573;28;20040;-68
2023/08/08 03:28:53;;;;;;;12.27;5.20;;;14.20;99.90;;;;;;5071336;28;20037;-68
2023/08/08 03:31:19;;;;;;;11.43;5.40;;;14.20;99.90;;;;;;5071733;28;20486;-68
2023/08/08 03:33:45;;;;;;;8.98;5.05;;;14.20;99.90;;;;;;5068045;28;20076;-68
2023/08/08 03:36:11;;;;;;;12.10;5.38;;;14.20;99.90;;;;;;5067337;28;20438;-68
2023/08/08 03:38:37;;;;;;;11.30;5.30;;;14.20;99.90;;;;;;5066531;28;20117;-68
2023/08/08 03:41:03;;;;;;;9.15;4.63;;;14.20;99.90;;;;;;5068680;28;20086;-68
2023/08/08 03:43:29;;;;;;;10.70;4.82;;;14.10;99.90;;;;;;5070812;28;20032;-68
2023/08/08 03:45:55;;;;;;;10.85;5.28;;;14.10;99.90;;;;;;5069255;28;20497;-68
2023/08/08 03:48:21;;;;;;;9.82;5.10;;;14.10;99.90;;;;;;5063656;28;20444;-68
2023/08/08 03:50:46;;;;;;;11.00;3.95;;;14.10;99.90;;;;;;5071358;28;20123;-68
2023/08/08 03:53:13;;;;;;;9.45;4.40;;;14.10;99.90;;;;;;5069459;28;20411;-68
2023/08/08 03:55:38;;;;;;;11.40;4.32;;;14.00;99.90;;;;;;5070125;28;20059;-68
2023/08/08 03:58:05;;;;;;;9.18;3.78;;;14.00;99.90;;;;;;5070093;28;20482;-68
2023/08/08 04:00:31;;;;;;;11.13;3.53;;;14.00;99.90;;;;;;5069568;28;20041;-68
2023/08/08 04:02:56;;;;;;;9.55;3.53;;;14.00;99.90;;;;;;5066648;28;20040;-68
2023/08/08 04:05:22;;;;;;;7.25;3.20;;;14.10;99.90;;;;;;5069035;28;20463;-68
2023/08/08 04:07:48;;;;;;;8.40;3.25;;;14.10;99.90;;;;;;5065396;28;20055;-68
2023/08/08 04:10:14;;;;;;;9.73;3.45;;;14.10;99.90;;;;;;5059440;28;20047;-68
2023/08/08 04:12:39;;;;;;;9.63;2.92;;;14.00;99.90;;;;;;5059198;28;20060;-68
2023/08/08 04:15:05;;;;;;;7.10;3.08;;;14.10;99.90;;;;;;5069312;28;20037;-68
2023/08/08 04:17:31;;;;;;;7.32;2.88;;;14.10;99.90;;;;;;5065873;28;20036;-68
2023/08/08 04:19:56;;;;;;;6.50;2.72;;;14.10;99.90;;;;;;5065349;28;20156;-68
2023/08/08 04:22:22;;;;;;;8.50;3.50;;;14.10;99.90;;;;;;5055459;28;20038;-68
2023/08/08 04:24:48;;;;;;;6.70;3.08;;;14.00;99.90;;;;;;5070906;28;20036;-68
2023/08/08 04:27:13;;;;;;;7.60;3.10;;;14.10;99.90;;;;;;5069615;28;20047;-68
2023/08/08 04:29:39;;;;;;;10.82;2.90;;;14.10;99.90;;;;;;5069029;28;20039;-68
2023/08/08 04:32:05;;;;;;;6.43;2.60;;;14.00;99.90;;;;;;5070180;28;20041;-68
2023/08/08 04:34:30;;;;;;;11.35;3.15;;;14.00;99.90;;;;;;5059014;28;20136;-68
2023/08/08 04:36:56;;;;;;;8.23;2.88;;;14.00;99.90;;;;;;5052220;28;20041;-68
2023/08/08 04:39:21;;;;;;;8.82;2.55;;;14.00;99.90;;;;;;5055229;28;20663;-68
2023/08/08 04:41:47;;;;;;;8.70;2.80;;;14.00;99.90;;;;;;5048857;28;20047;-68
2023/08/08 04:44:13;;;;;;;7.35;2.60;;;14.00;99.90;;;;;;5065250;28;20047;-68
2023/08/08 04:46:38;;;;;;;6.63;2.97;;;14.00;99.90;;;;;;5063101;28;20515;-68
2023/08/08 04:49:04;;;;;;;6.50;2.90;;;14.00;99.90;;;;;;5064618;28;20032;-68
2023/08/08 04:51:29;;;;;;;8.65;2.67;;;14.00;99.90;;;;;;5065673;28;20036;-68
2023/08/08 04:53:55;;;;;;;7.82;2.58;;;14.00;99.90;;;;;;5070253;28;20502;-68
2023/08/08 04:56:21;;;;;;;6.63;2.90;;;14.00;99.90;;;;;;5065167;28;20036;-68
2023/08/08 04:58:46;;;;;;;7.57;2.42;;;14.00;99.90;;;;;;5069320;28;20028;-68
2023/08/08 05:01:14;;;;;;;6.15;2.80;;;14.00;99.90;;;;;;5066321;28;20470;-68
2023/08/08 05:03:40;;;;;;;6.43;2.47;;;14.00;99.90;;;;;;5069575;28;20060;-68
2023/08/08 05:06:06;;;;;;;7.93;2.58;;;14.10;99.90;;;;;;5071849;28;21905;-68
2023/08/08 05:08:31;;;;;;;7.03;2.55;;;14.10;99.90;;;;;;5066049;28;20037;-68
2023/08/08 05:10:57;;;;;;;7.55;2.42;;;14.10;99.90;;;;;;5070203;28;20033;-68
2023/08/08 05:13:22;;;;;;;4.78;2.35;;;14.20;99.90;;;;;;5069622;28;20467;-68
2023/08/08 05:15:48;;;;;;;6.50;2.78;;;14.20;99.90;;;;;;5072902;28;20036;-68
2023/08/08 05:18:14;;;;;;;7.80;2.33;;;14.30;99.90;;;;;;5068043;28;20115;-68
2023/08/08 05:20:39;;;;;;;6.90;2.22;;;14.30;99.90;;;;;;5068580;28;20107;-68
2023/08/08 05:23:05;;;;;;;9.75;2.40;;;14.40;99.90;;;;;;5063275;28;20037;-69
2023/08/08 05:25:31;;;;;;;4.85;2.00;;;14.40;99.90;;;;;;5068773;28;20040;-69
2023/08/08 05:27:57;;;;;;;5.75;1.80;;;14.50;99.90;;;;;;5069193;28;20055;-68
2023/08/08 05:30:23;;;;;;;5.30;1.83;;;14.60;99.90;;;;;;5069183;28;20028;-68
2023/08/08 05:32:48;;;;;;;6.80;2.08;;;14.70;99.90;;;;;;5066607;28;20498;-68
2023/08/08 05:35:14;;;;;;;6.88;2.25;;;14.80;99.90;;;;;;5070012;28;20119;-69
2023/08/08 05:37:39;;;;;;;5.05;2.05;;;14.80;99.90;;;;;;5062980;28;20162;-68
2023/08/08 05:40:06;;;;;;;6.28;1.48;;;14.80;99.90;;;;;;5063161;28;20043;-68
2023/08/08 05:42:32;;;;;;;4.47;1.67;;;14.80;99.90;;;;;;5065359;28;20043;-68
2023/08/08 05:44:58;;;;;;;6.38;1.80;;;14.90;99.90;;;;;;5070459;28;20036;-69
2023/08/08 05:47:24;;;;;;;4.43;1.70;;;14.90;99.90;;;;;;5065350;28;20426;-68
2023/08/08 05:49:49;;;;;;;6.07;1.70;;;14.90;99.90;;;;;;5067034;28;20047;-68
2023/08/08 05:52:15;;;;;;;5.78;1.55;;;14.90;99.90;;;;;;5072012;28;20032;-68
2023/08/08 05:54:41;;;;;;;7.45;1.60;;;14.90;99.90;;;;;;5076324;28;20432;-68
2023/08/08 05:57:07;;;;;;;5.43;1.67;;;14.80;99.90;;;;;;5071733;28;20048;-68
2023/08/08 05:59:32;;;;;;;5.60;1.80;;;14.80;99.90;;;;;;5070239;28;20402;-68
2023/08/08 06:01:58;;;;;;;7.18;1.70;;;14.80;99.90;;;;;;5071246;28;20067;-68
2023/08/08 06:04:24;;;;;;;4.85;1.70;;;14.70;99.90;;;;;;5071746;28;20036;-68
2023/08/08 06:06:50;;;;;;;7.22;1.85;;;14.70;99.90;;;;;;5071417;28;20068;-68
2023/08/08 06:09:16;;;;;;;6.05;1.48;;;14.80;99.90;;;;;;5068771;28;20060;-68
2023/08/08 06:11:42;;;;;;;4.57;1.27;;;14.80;99.90;;;;;;5069350;28;20509;-68
2023/08/08 06:14:08;;;;;;;5.68;1.40;;;14.70;99.90;;;;;;5067985;28;20044;-67
2023/08/08 06:16:34;;;;;;;6.75;1.42;;;14.70;99.90;;;;;;5071667;28;20028;-68
2023/08/08 06:18:59;;;;;;;7.93;1.33;;;14.80;99.90;;;;;;5084981;28;20040;-68
2023/08/08 06:21:25;;;;;;;10.05;1.95;;;14.80;99.90;;;;;;5102289;22;20067;-65
2023/08/08 06:23:53;;;;;;;4.60;1.40;;;14.80;99.90;;;;;;5070449;28;20092;-65
2023/08/08 06:26:18;;;;;;;4.15;1.38;;;14.90;99.90;;;;;;5068758;28;20044;-65
2023/08/08 06:28:44;;;;;;;6.80;1.33;;;15.00;99.90;;;;;;5069464;28;20059;-65
2023/08/08 06:31:09;;;;;;;6.55;1.40;;;15.20;99.90;;;;;;5086462;28;20035;-64
2023/08/08 06:33:35;;;;;;;4.50;1.50;;;15.20;99.90;;;;;;5084241;28;20032;-64
2023/08/08 06:36:01;;;;;;;6.97;1.80;;;15.40;99.90;;;;;;5080753;28;20032;-64
2023/08/08 06:38:27;;;;;;;7.78;1.73;;;15.50;99.90;;;;;;5080840;28;20116;-64
2023/08/08 06:40:53;;;;;;;5.70;1.90;;;15.60;99.90;;;;;;5060661;28;20036;-64
2023/08/08 06:43:19;;;;;;;7.22;1.30;;;15.70;99.90;;;;;;5079771;28;20030;-65
2023/08/08 06:45:44;;;;;;;6.78;1.30;;;15.80;99.90;;;;;;5081174;28;20047;-65
2023/08/08 06:48:10;;;;;;;5.38;1.40;;;15.90;99.90;;;;;;5084704;28;20036;-65
2023/08/08 06:50:36;;;;;;;4.10;1.40;;;16.00;99.90;;;;;;5078371;28;20115;-65
2023/08/08 06:53:02;;;;;;;3.90;1.52;;;16.10;99.90;;;;;;5096555;28;20078;-65
2023/08/08 06:55:28;;;;;;;4.35;1.48;;;16.20;99.90;;;;;;5088528;28;20097;-65
2023/08/08 06:57:53;;;;;;;6.50;1.88;;;16.30;99.90;;;;;;5074347;28;20032;-64
2023/08/08 07:00:19;;;;;;;6.30;1.58;;;16.40;99.90;;;;;;5092524;28;20032;-64
2023/08/08 07:02:45;;;;;;;5.30;1.30;;;16.50;99.90;;;;;;5091272;28;20073;-65
2023/08/08 07:05:10;;;;;;;5.43;1.55;;;16.60;99.90;;;;;;5069502;28;20115;-65
2023/08/08 07:07:36;;;;;;;6.30;1.40;;;16.60;99.90;;;;;;5073393;28;20459;-64
2023/08/08 07:10:03;;;;;;;5.07;1.40;;;16.70;99.90;;;;;;5078699;28;20550;-65
2023/08/08 07:12:29;;;;;;;2.80;1.10;;;16.80;99.90;;;;;;5058710;28;20040;-64
2023/08/08 07:14:55;;;;;;;3.00;1.20;;;16.90;99.90;;;;;;5083713;28;20037;-65
2023/08/08 07:17:20;;;;;;;3.90;1.00;;;17.00;99.90;;;;;;5098472;28;20032;-65
2023/08/08 07:19:46;;;;;;;6.75;1.45;;;17.10;99.90;;;;;;5079202;28;20043;-65
2023/08/08 07:22:11;;;;;;;3.58;1.65;;;17.20;99.90;;;;;;5064741;28;20122;-65
2023/08/08 07:24:38;;;;;;;4.82;1.15;;;17.30;99.90;;;;;;5086737;28;20040;-64
2023/08/08 07:27:04;;;;;;;3.65;1.42;;;17.50;99.90;;;;;;5065755;28;20101;-64
2023/08/08 07:29:30;;;;;;;3.17;1.35;;;17.60;99.90;;;;;;5080654;28;20542;-64
2023/08/08 07:31:58;;;;;;;6.47;1.20;;;17.70;99.90;;;;;;5099010;28;20028;-65
2023/08/08 07:34:24;;;;;;;5.10;1.10;;;17.70;99.90;;;;;;5082708;28;20032;-65
2023/08/08 07:36:50;;;;;;;5.45;1.13;;;17.80;99.90;;;;;;5076211;28;20122;-65
2023/08/08 07:39:16;;;;;;;4.10;1.00;;;17.80;99.90;;;;;;5079110;28;20072;-65
2023/08/08 07:41:41;;;;;;;5.20;1.20;;;17.90;99.90;;;;;;5082681;28;20039;-64
2023/08/08 07:44:07;;;;;;;4.97;1.00;;;18.00;99.90;;;;;;5075940;28;20499;-65
2023/08/08 07:46:33;;;;;;;5.35;0.98;;;18.10;99.90;;;;;;5091210;28;20032;-65
2023/08/08 07:49:02;;;;;;;4.13;1.10;;;18.20;99.90;;;;;;5096822;28;20041;-65
2023/08/08 07:51:28;;;;;;;5.55;1.25;;;18.20;99.90;;;;;;5084139;28;20563;-65
2023/08/08 07:53:53;;;;;;;3.78;0.98;;;18.30;99.90;;;;;;5083228;28;20037;-65
2023/08/08 07:56:19;;;;;;;4.53;1.05;;;18.30;99.90;;;;;;5079905;28;20107;-65
2023/08/08 07:58:44;;;;;;;8.85;1.40;;;18.30;99.90;;;;;;5060413;28;20044;-65
2023/08/08 08:01:11;;;;;;;4.47;1.00;;;18.40;99.90;;;;;;5064675;28;20039;-65
2023/08/08 08:03:37;;;;;;;4.63;1.02;;;18.40;99.90;;;;;;5059636;28;20046;-65
2023/08/08 08:06:03;;;;;;;3.85;1.00;;;18.40;99.90;;;;;;5075123;28;20035;-65
2023/08/08 08:08:28;;;;;;;7.38;1.08;;;18.40;99.90;;;;;;5064405;28;20036;-65
2023/08/08 08:10:54;;;;;;;2.58;1.10;;;18.60;99.90;;;;;;5083240;28;20054;-65
2023/08/08 08:13:20;;;;;;;5.75;0.85;;;18.70;99.90;;;;;;5067273;28;20460;-65
2023/08/08 08:15:45;;;;;;;4.35;1.00;;;18.70;99.90;;;;;;5080740;28;20089;-65
2023/08/08 08:18:12;;;;;;;5.15;1.20;;;18.60;99.90;;;;;;5084446;28;20040;-65
2023/08/08 08:20:38;;;;;;;3.95;1.52;;;18.40;99.90;;;;;;5078854;28;20060;-65
2023/08/08 08:23:04;;;;;;;3.90;0.90;;;18.20;99.90;;;;;;5085069;28;20537;-65
2023/08/08 08:25:31;;;;;;;3.83;1.05;;;18.10;99.90;;;;;;5084899;28;20063;-65
2023/08/08 08:27:57;;;;;;;4.25;1.10;;;18.00;99.90;;;;;;5084668;28;20490;-65
2023/08/08 08:30:25;;;;;;;5.32;1.15;;;17.90;99.90;;;;;;5088284;28;20032;-65
2023/08/08 08:32:51;;;;;;;4.72;0.93;;;17.90;99.90;;;;;;5087368;28;20036;-65
2023/08/08 08:35:17;;;;;;;1.63;0.90;;;17.90;99.90;;;;;;5085070;28;20047;-65
2023/08/08 08:37:43;;;;;;;4.65;0.90;;;17.90;99.90;;;;;;5086456;28;20058;-65
2023/08/08 08:40:09;;;;;;;4.40;0.77;;;17.90;99.90;;;;;;5066205;28;20406;-65
2023/08/08 08:42:35;;;;;;;2.45;0.88;;;17.90;99.90;;;;;;5046682;28;20103;-65
2023/08/08 08:45:03;;;;;;;3.30;1.05;;;17.90;99.90;;;;;;5083570;28;20115;-65
2023/08/08 08:47:31;;;;;;;4.43;0.88;;;17.90;99.90;;;;;;5066708;28;20047;-65
2023/08/08 08:49:57;;;;;;;3.58;1.30;;;18.00;99.90;;;;;;5085291;28;20114;-65
2023/08/08 08:52:23;;;;;;;3.90;1.05;;;18.10;99.90;;;;;;5082964;28;20032;-65
2023/08/08 08:54:51;;;;;;;5.07;1.02;;;18.10;99.90;;;;;;5067076;28;20067;-65
2023/08/08 08:57:17;;;;;;;4.93;0.90;;;18.10;99.90;;;;;;5084365;28;20073;-64
2023/08/08 08:59:44;;;;;;;3.70;0.90;;;18.10;99.90;;;;;;5089167;28;20028;-65
2023/08/08 09:02:10;;;;;;;4.88;1.08;;;18.10;99.90;;;;;;5083752;28;20032;-66
2023/08/08 09:04:37;;;;;;;4.47;0.80;;;18.20;99.90;;;;;;5087769;28;20144;-65
2023/08/08 09:07:06;;;;;;;1.90;0.85;;;18.20;99.90;;;;;;5092229;28;20043;-66
2023/08/08 09:09:36;;;;;;;2.25;0.90;;;18.10;99.90;;;;;;5090718;28;20044;-66
2023/08/08 09:12:04;;;;;;;2.50;0.90;;;18.10;99.90;;;;;;5083137;28;20397;-66
2023/08/08 09:14:30;;;;;;;3.20;0.80;;;18.00;99.90;;;;;;5059492;28;20512;-66
2023/08/08 09:16:57;;;;;;;5.22;1.10;;;18.00;99.90;;;;;;5067386;28;20041;-65
2023/08/08 09:19:23;;;;;;;3.78;0.93;;;18.10;99.90;;;;;;5084715;28;20043;-65
2023/08/08 09:21:51;;;;;;;7.13;1.38;;;18.20;99.90;;;;;;5078327;28;20040;-65
2023/08/08 09:24:17;;;;;;;6.18;1.00;;;18.20;99.90;;;;;;5064818;28;20520;-66
2023/08/08 09:26:44;;;;;;;4.40;0.90;;;18.30;99.90;;;;;;5061570;28;20086;-64
2023/08/08 09:29:12;;;;;;;3.42;1.20;;;18.40;99.90;;;;;;5072992;28;20045;-65
2023/08/08 09:31:38;;;;;;;3.00;0.95;;;18.70;99.90;;;;;;5073476;28;20120;-65
2023/08/08 09:34:05;;;;;;;4.80;1.08;;;18.90;99.90;;;;;;5060293;28;20398;-65
2023/08/08 09:36:31;;;;;;;4.13;0.70;;;19.00;99.90;;;;;;5088703;28;20032;-66
2023/08/08 09:38:57;;;;;;;5.45;1.00;;;18.90;99.90;;;;;;5070127;28;20078;-65
2023/08/08 09:42:01;;;;;;;2.35;0.80;;;18.90;99.90;;;;;;5085992;28;20024;-65
2023/08/08 09:44:29;;;;;;;2.70;0.82;;;18.70;99.90;;;;;;5069443;28;20089;-66
2023/08/08 09:46:55;;;;;;;3.58;1.02;;;18.50;99.90;;;;;;5105158;28;20443;-65
2023/08/08 09:49:22;;;;;;;3.65;0.90;;;18.30;99.90;;;;;;5082674;28;20120;-65
2023/08/08 09:51:49;;;;;;;5.43;1.05;;;18.10;99.90;;;;;;5098175;28;20032;-64
2023/08/08 09:54:15;;;;;;;4.00;1.17;;;17.80;99.90;;;;;;5073082;28;20068;-64
2023/08/08 09:56:41;;;;;;;2.83;0.90;;;17.70;99.90;;;;;;5082201;28;20059;-65
2023/08/08 09:59:08;;;;;;;4.20;1.20;;;17.80;99.90;;;;;;5081026;28;20036;-65
2023/08/08 10:01:34;;;;;;;6.47;1.20;;;18.00;99.90;;;;;;5086593;28;20035;-65
2023/08/08 10:04:02;;;;;;;4.22;1.00;;;18.20;99.90;;;;;;5100940;28;20408;-65
2023/08/08 10:06:28;;;;;;;3.30;0.95;;;18.50;99.90;;;;;;5106754;28;20036;-65
2023/08/08 10:08:55;;;;;;;4.60;1.17;;;18.60;99.90;;;;;;5104102;28;20066;-64
2023/08/08 10:11:23;;;;;;;5.55;1.42;;;18.70;99.90;;;;;;5084521;28;20046;-66
2023/08/08 10:13:52;;;;;;;3.30;0.90;;;18.40;99.90;;;;;;5086223;28;20036;-65
2023/08/08 10:16:18;;;;;;;4.88;1.10;;;18.10;99.90;;;;;;5093631;28;20032;-65
2023/08/08 10:18:46;;;;;;;3.55;0.80;;;17.80;99.90;;;;;;5077837;28;20074;-65
2023/08/08 10:21:12;;;;;;;2.75;0.90;;;17.60;99.90;;;;;;5086809;28;20043;-64
2023/08/08 10:23:39;;;;;;;3.28;0.80;;;17.40;99.90;;;;;;5076523;28;20043;-64
2023/08/08 10:26:17;;;;;;;4.93;0.82;;;17.40;99.90;;;;;;5064710;28;20032;-64
2023/08/08 10:28:52;;;;;;;3.15;1.20;;;17.50;99.90;;;;;;5090836;28;20051;-64
2023/08/08 10:31:21;;;;;;;6.28;1.30;;;17.70;99.90;;;;;;5086019;28;20032;-65
2023/08/08 10:33:46;;;;;;;4.28;1.20;;;17.80;99.90;;;;;;5081773;28;20036;-65
2023/08/08 10:36:15;;;;;;;4.30;1.17;;;18.10;99.90;;;;;;5094817;28;20386;-65
2023/08/08 10:38:50;;;;;;;3.92;1.10;;;18.30;99.90;;;;;;5098458;28;20028;-65
2023/08/08 10:41:22;;;;;;;2.88;0.82;;;18.60;99.90;;;;;;5087197;28;20147;-65
2023/08/08 10:43:52;;;;;;;3.40;0.95;;;18.70;99.90;;;;;;5108692;28;20058;-65
2023/08/08 10:46:28;;;;;;;4.93;1.00;;;18.70;99.90;;;;;;5088781;28;20044;-66
2023/08/08 10:48:59;;;;;;;2.90;1.00;;;18.80;99.90;;;;;;5079214;28;20032;-65
2023/08/08 10:51:36;;;;;;;2.80;1.00;;;18.90;99.90;;;;;;5068060;28;20036;-66
2023/08/08 10:54:23;;;;;;;4.15;1.25;;;18.80;99.90;;;;;;5072037;28;20043;-65
2023/08/08 10:56:54;;;;;;;4.15;1.30;;;18.60;99.90;;;;;;5098331;28;20031;-66
2023/08/08 10:59:36;;;;;;;4.72;1.35;;;18.50;99.90;;;;;;5084708;28;20036;-66
2023/08/08 11:02:02;;;;;;;6.78;1.33;;;18.40;99.90;;;;;;5062096;28;20056;-65
2023/08/08 11:04:30;;;;;;;4.95;1.10;;;18.40;99.90;;;;;;5079776;28;20044;-65
2023/08/08 11:06:56;;;;;;;4.00;0.93;;;18.40;99.90;;;;;;5078535;28;20082;-65
2023/08/08 11:09:23;;;;;;;2.70;1.17;;;18.40;99.90;;;;;;5086115;28;20040;-66
2023/08/08 11:11:49;;;;;;;6.00;1.30;;;18.30;99.90;;;;;;5068025;28;20040;-65
2023/08/08 11:14:17;;;;;;;5.05;1.63;;;18.30;99.90;;;;;;5068372;28;20486;-66
2023/08/08 11:16:45;;;;;;;5.55;1.20;;;18.40;99.90;;;;;;5060929;28;20115;-66
2023/08/08 11:19:12;;;;;;;3.17;0.98;;;18.60;99.90;;;;;;5063873;28;20081;-66
2023/08/08 11:21:41;;;;;;;2.58;1.30;;;18.60;99.90;;;;;;5062315;28;20432;-65
2023/08/08 11:24:15;;;;;;;3.30;1.48;;;18.60;99.90;;;;;;5080110;28;20433;-64
2023/08/08 11:26:45;;;;;;;5.80;1.30;;;18.40;99.90;;;;;;5076529;28;20076;-65
2023/08/08 11:29:13;;;;;;;9.38;1.48;;;18.20;99.90;;;;;;5074572;28;20040;-65
2023/08/08 11:31:42;;;;;;;4.10;1.25;;;18.10;99.90;;;;;;5078156;28;20129;-65
2023/08/08 11:34:18;;;;;;;6.65;1.60;;;18.00;99.90;;;;;;5062478;28;20135;-64
2023/08/08 11:36:45;;;;;;;4.25;1.25;;;17.90;99.90;;;;;;5082303;28;20162;-64
2023/08/08 11:39:11;;;;;;;3.63;1.27;;;17.90;99.90;;;;;;5079470;28;20040;-64
2023/08/08 11:41:37;;;;;;;3.75;1.15;;;17.80;99.90;;;;;;5077769;28;20044;-64
2023/08/08 11:44:04;;;;;;;3.50;1.85;;;17.90;99.90;;;;;;5065305;28;20502;-64
2023/08/08 11:46:30;;;;;;;2.30;1.02;;;18.10;99.90;;;;;;5064269;28;20525;-64
2023/08/08 11:49:06;;;;;;;2.35;1.23;;;18.40;99.90;;;;;;5068154;28;20128;-64
2023/08/08 11:51:33;;;;;;;5.15;1.30;;;18.50;99.90;;;;;;5087395;28;20039;-65
2023/08/08 11:54:05;;;;;;;4.15;0.93;;;18.50;99.90;;;;;;5088755;28;20048;-65
2023/08/08 11:56:34;;;;;;;4.15;1.10;;;18.50;99.90;;;;;;5088704;28;20028;-65
2023/08/08 11:59:00;;;;;;;5.65;1.25;;;18.40;99.90;;;;;;5068571;28;20055;-65
2023/08/08 12:01:26;;;;;;;3.70;1.20;;;18.30;99.90;;;;;;5085307;28;20032;-65
2023/08/08 12:03:53;;;;;;;2.15;1.48;;;18.20;99.90;;;;;;5074157;28;20040;-65
2023/08/08 12:06:19;;;;;;;5.72;1.10;;;18.10;99.90;;;;;;5084396;28;20047;-65
2023/08/08 12:08:47;;;;;;;4.30;1.02;;;18.10;99.90;;;;;;5082746;28;20028;-64
2023/08/08 12:11:13;;;;;;;3.30;1.00;;;18.10;99.90;;;;;;5088551;28;20418;-65
2023/08/08 12:13:44;;;;;;;4.97;1.30;;;18.20;99.90;;;;;;5088454;28;20116;-65
2023/08/08 12:16:16;;;;;;;4.90;1.23;;;18.20;99.90;;;;;;5067730;28;20032;-67
2023/08/08 12:18:41;;;;;;;5.95;1.20;;;18.30;99.90;;;;;;5080925;28;20040;-64
2023/08/08 12:21:10;;;;;;;5.55;1.50;;;18.50;99.90;;;;;;5107109;22;20043;-66
2023/08/08 12:23:36;;;;;;;6.78;1.50;;;18.70;99.90;;;;;;5087761;28;20039;-66
2023/08/08 12:26:07;;;;;;;5.75;1.35;;;18.80;99.90;;;;;;5090308;28;20107;-68
2023/08/08 12:28:33;;;;;;;3.35;1.10;;;18.80;99.90;;;;;;5090057;28;20063;-67
2023/08/08 12:30:59;;;;;;;3.33;1.45;;;18.80;99.90;;;;;;5085132;28;20144;-68
2023/08/08 12:33:24;;;;;;;4.80;1.23;;;18.60;99.90;;;;;;5092085;28;20074;-66
2023/08/08 12:35:50;;;;;;;5.72;1.40;;;18.50;99.90;;;;;;5081346;28;20032;-65
2023/08/08 12:38:16;;;;;;;5.15;1.30;;;18.40;99.90;;;;;;5092298;28;20078;-65
2023/08/08 12:40:42;;;;;;;4.00;1.23;;;18.30;99.90;;;;;;5081163;28;20036;-65
2023/08/08 12:43:10;;;;;;;4.25;1.02;;;18.30;99.90;;;;;;5093657;28;20043;-65